createdAt,value
2022-11-22T00:00:01.389Z,1.52
2022-11-22T00:02:02.980Z,0.73
2022-11-22T00:04:04.603Z,0.57
2022-11-22T00:06:06.467Z,0.30
2022-11-22T00:08:08.050Z,0.20
2022-11-22T00:10:10.776Z,0.80
2022-11-22T00:12:12.305Z,1.63
2022-11-22T00:14:14.056Z,0.60
2022-11-22T00:16:15.644Z,0.20
2022-11-22T00:18:17.122Z,0.88
2022-11-22T00:20:18.655Z,0.30
2022-11-22T00:22:20.194Z,0.93
2022-11-22T00:24:21.642Z,0.75
2022-11-22T00:26:24.016Z,2.05
2022-11-22T00:28:25.705Z,0.75
2022-11-22T00:30:27.151Z,1.60
2022-11-22T00:32:28.747Z,0.60
2022-11-22T00:34:30.350Z,1.33
2022-11-22T00:36:32.084Z,1.52
2022-11-22T00:38:33.639Z,0.30
2022-11-22T00:40:35.150Z,0.30
2022-11-22T00:42:36.661Z,1.95
2022-11-22T00:44:38.159Z,2.55
2022-11-22T00:46:39.620Z,0.20
2022-11-22T00:48:41.058Z,0.20
2022-11-22T00:50:42.515Z,0.75
2022-11-22T00:52:44.040Z,0.20
2022-11-22T00:54:48.853Z,0.73
2022-11-22T00:56:53.070Z,1.65
2022-11-22T00:58:54.620Z,0.80
2022-11-22T01:00:56.999Z,0.85
2022-11-22T01:02:58.806Z,0.35
2022-11-22T01:05:00.268Z,0.30
2022-11-22T01:07:01.749Z,1.10
2022-11-22T01:09:03.502Z,0.68
2022-11-22T01:11:05.085Z,0.30
2022-11-22T01:13:06.667Z,0.20
2022-11-22T01:15:08.302Z,1.17
2022-11-22T01:17:09.816Z,0.47
2022-11-22T01:19:11.295Z,0.20
2022-11-22T01:21:13.024Z,0.20
2022-11-22T01:23:14.589Z,0.40
2022-11-22T01:25:16.421Z,0.43
2022-11-22T01:27:17.983Z,0.20
2022-11-22T01:29:19.495Z,0.20
2022-11-22T01:31:21.019Z,0.32
2022-11-22T01:33:22.565Z,0.43
2022-11-22T01:35:24.296Z,0.38
2022-11-22T01:37:25.918Z,0.28
2022-11-22T01:39:27.655Z,0.30
2022-11-22T01:41:29.489Z,0.20
2022-11-22T01:43:30.950Z,0.20
2022-11-22T01:45:41.309Z,0.55
2022-11-22T01:47:42.894Z,0.38
2022-11-22T01:49:47.160Z,0.28
2022-11-22T01:53:50.326Z,0.20
2022-11-22T01:56:00.164Z,0.20
2022-11-22T01:58:18.820Z,0.20
2022-11-22T02:00:31.626Z,0.20
2022-11-22T02:02:55.875Z,0.40
2022-11-22T02:05:10.369Z,0.10
2022-11-22T02:07:54.736Z,0.20
2022-11-22T02:10:12.880Z,0.20
2022-11-22T02:12:27.287Z,0.10
2022-11-22T02:14:42.653Z,0.20
2022-11-22T02:16:59.728Z,0.13
2022-11-22T02:19:17.093Z,0.20
2022-11-22T02:21:34.069Z,0.20
2022-11-22T02:24:03.304Z,0.10
2022-11-22T02:26:25.679Z,0.25
2022-11-22T02:28:45.777Z,0.13
2022-11-22T02:31:10.084Z,0.28
2022-11-22T02:33:27.264Z,0.22
2022-11-22T02:37:32.457Z,0.65
2022-11-22T02:39:33.944Z,0.10
2022-11-22T02:41:36.897Z,0.10
2022-11-22T02:43:40.078Z,0.20
2022-11-22T02:45:41.752Z,0.20
2022-11-22T02:47:43.193Z,0.20
2022-11-22T02:49:44.625Z,0.28
2022-11-22T02:51:46.603Z,0.20
2022-11-22T02:53:48.786Z,0.10
2022-11-22T02:55:50.738Z,0.20
2022-11-22T02:57:52.340Z,0.40
2022-11-22T02:59:53.915Z,0.10
2022-11-22T03:02:00.051Z,0.20
2022-11-22T03:04:04.489Z,0.10
2022-11-22T03:06:05.925Z,0.10
2022-11-22T03:08:07.340Z,0.20
2022-11-22T03:10:09.007Z,0.25
2022-11-22T03:12:10.397Z,0.10
2022-11-22T03:14:11.873Z,0.10
2022-11-22T03:16:13.525Z,0.20
2022-11-22T03:18:15.324Z,0.10
2022-11-22T03:20:17.112Z,0.10
2022-11-22T03:22:19.012Z,0.20
2022-11-22T03:24:20.574Z,0.30
2022-11-22T03:26:22.258Z,0.30
2022-11-22T03:28:23.786Z,0.30
2022-11-22T03:30:25.729Z,0.10
2022-11-22T03:32:27.189Z,0.20
2022-11-22T03:34:28.674Z,0.10
2022-11-22T03:36:30.499Z,1.90
2022-11-22T03:38:32.235Z,0.20
2022-11-22T03:40:33.825Z,0.20
2022-11-22T03:42:35.249Z,0.20
2022-11-22T03:44:37.073Z,0.45
2022-11-22T03:46:38.507Z,0.20
2022-11-22T03:48:39.992Z,0.10
2022-11-22T03:50:41.747Z,0.20
2022-11-22T03:52:43.253Z,0.20
2022-11-22T03:54:44.893Z,0.10
2022-11-22T03:56:46.452Z,0.25
2022-11-22T03:58:47.926Z,0.10
2022-11-22T04:00:49.427Z,0.13
2022-11-22T04:02:50.881Z,0.20
2022-11-22T04:04:52.323Z,0.10
2022-11-22T04:06:53.901Z,0.13
2022-11-22T04:08:55.419Z,0.10
2022-11-22T04:10:57.009Z,0.20
2022-11-22T04:12:58.999Z,0.15
2022-11-22T04:15:09.289Z,0.20
2022-11-22T04:17:14.261Z,0.20
2022-11-22T04:19:15.999Z,0.20
2022-11-22T04:21:35.500Z,0.88
2022-11-22T04:23:37.129Z,0.10
2022-11-22T04:25:39.806Z,0.20
2022-11-22T04:27:41.307Z,0.20
2022-11-22T04:29:43.077Z,0.93
2022-11-22T04:32:03.417Z,0.43
2022-11-22T04:34:04.834Z,0.20
2022-11-22T04:36:11.854Z,0.50
2022-11-22T04:38:15.090Z,0.30
2022-11-22T04:40:16.581Z,0.20
2022-11-22T04:42:36.485Z,0.55
2022-11-22T04:44:40.897Z,0.38
2022-11-22T04:46:42.490Z,0.10
2022-11-22T04:48:44.195Z,0.32
2022-11-22T04:51:04.733Z,0.28
2022-11-22T04:53:06.216Z,0.47
2022-11-22T04:55:08.011Z,2.28
2022-11-22T04:57:09.484Z,0.55
2022-11-22T04:59:20.031Z,0.20
2022-11-22T05:01:40.186Z,0.40
2022-11-22T05:03:59.333Z,0.63
2022-11-22T05:08:35.745Z,0.55
2022-11-22T05:11:01.355Z,1.25
2022-11-22T05:13:21.924Z,0.20
2022-11-22T05:15:33.666Z,1.70
2022-11-22T05:17:52.419Z,0.30
2022-11-22T05:20:11.831Z,0.43
2022-11-22T05:22:49.512Z,0.43
2022-11-22T05:25:06.438Z,0.63
2022-11-22T05:27:26.580Z,1.23
2022-11-22T05:29:41.282Z,1.75
2022-11-22T05:31:51.438Z,0.80
2022-11-22T05:34:10.336Z,0.10
2022-11-22T05:38:21.459Z,0.45
2022-11-22T05:40:24.863Z,0.65
2022-11-22T05:42:26.311Z,2.53
2022-11-22T05:44:27.807Z,1.25
2022-11-22T05:46:30.286Z,0.17
2022-11-22T05:48:31.940Z,2.30
2022-11-22T05:50:33.364Z,0.50
2022-11-22T05:52:35.097Z,0.20
2022-11-22T05:54:36.679Z,1.05
2022-11-22T05:56:38.407Z,0.70
2022-11-22T05:58:40.122Z,0.50
2022-11-22T06:00:41.715Z,0.10
2022-11-22T06:02:43.324Z,0.25
2022-11-22T06:04:44.779Z,0.65
2022-11-22T06:06:49.330Z,0.20
2022-11-22T06:08:51.588Z,1.33
2022-11-22T06:10:53.066Z,1.10
2022-11-22T06:12:54.567Z,0.20
2022-11-22T06:14:56.423Z,1.73
2022-11-22T06:16:58.282Z,1.25
2022-11-22T06:18:59.779Z,0.22
2022-11-22T06:21:02.208Z,0.70
2022-11-22T06:23:03.758Z,0.55
2022-11-22T06:25:05.361Z,0.75
2022-11-22T06:27:06.865Z,0.73
2022-11-22T06:29:08.310Z,1.23
2022-11-22T06:31:11.073Z,0.15
2022-11-22T06:33:12.526Z,0.20
2022-11-22T06:35:13.977Z,0.13
2022-11-22T06:37:16.228Z,1.75
2022-11-22T06:39:17.634Z,0.40
2022-11-22T06:41:20.615Z,0.20
2022-11-22T06:43:22.545Z,0.35
2022-11-22T06:45:24.222Z,0.25
2022-11-22T06:47:25.835Z,0.10
2022-11-22T06:49:27.742Z,0.30
2022-11-22T06:51:30.209Z,0.20
2022-11-22T06:53:46.990Z,0.68
2022-11-22T06:55:50.918Z,0.35
2022-11-22T06:59:54.974Z,0.47
2022-11-22T07:02:00.173Z,0.20
2022-11-22T07:04:05.166Z,0.77
2022-11-22T07:06:07.422Z,0.35
2022-11-22T07:08:13.682Z,0.98
2022-11-22T07:10:15.822Z,0.20
2022-11-22T07:12:17.377Z,0.55
2022-11-22T07:14:19.150Z,0.30
2022-11-22T07:16:21.329Z,0.13
2022-11-22T07:18:23.406Z,0.25
2022-11-22T07:20:25.001Z,0.25
2022-11-22T07:22:26.896Z,0.77
2022-11-22T07:24:28.774Z,0.28
2022-11-22T07:26:30.331Z,0.22
2022-11-22T07:28:31.928Z,0.13
2022-11-22T07:30:33.437Z,0.30
2022-11-22T07:32:34.958Z,0.20
2022-11-22T07:34:36.859Z,0.20
2022-11-22T07:36:38.566Z,0.43
2022-11-22T07:38:40.519Z,0.13
2022-11-22T07:40:41.986Z,0.10
2022-11-22T07:42:43.706Z,1.08
2022-11-22T07:44:45.390Z,0.60
2022-11-22T07:46:48.715Z,1.08
2022-11-22T07:48:50.956Z,0.60
2022-11-22T07:50:52.430Z,0.55
2022-11-22T07:53:00.469Z,0.40
2022-11-22T07:55:02.132Z,1.00
2022-11-22T07:57:03.755Z,1.00
2022-11-22T07:59:05.218Z,0.40
2022-11-22T08:01:10.741Z,1.50
2022-11-22T08:03:17.748Z,0.73
2022-11-22T08:05:24.480Z,2.08
2022-11-22T08:07:47.253Z,0.20
2022-11-22T08:10:12.301Z,0.30
2022-11-22T08:12:27.642Z,1.25
2022-11-22T08:14:46.160Z,0.20
2022-11-22T08:17:05.083Z,0.13
2022-11-22T08:19:32.133Z,0.38
2022-11-22T08:21:58.528Z,0.35
2022-11-22T08:24:18.773Z,1.33
2022-11-22T08:26:37.022Z,0.90
2022-11-22T08:28:54.088Z,0.52
2022-11-22T08:31:13.774Z,0.52
2022-11-22T08:33:30.433Z,0.32
2022-11-22T08:35:43.807Z,0.70
2022-11-22T08:38:00.843Z,0.30
2022-11-22T08:40:17.569Z,0.20
2022-11-22T08:42:26.170Z,0.15
2022-11-22T08:44:31.227Z,0.20
2022-11-22T08:46:32.977Z,0.60
2022-11-22T08:48:35.674Z,0.20
2022-11-22T08:50:37.319Z,0.20
2022-11-22T08:52:38.849Z,0.28
2022-11-22T08:54:40.898Z,0.63
2022-11-22T08:56:42.426Z,1.05
2022-11-22T08:58:44.445Z,0.25
2022-11-22T09:00:46.030Z,0.25
2022-11-22T09:02:47.613Z,0.10
2022-11-22T09:04:49.246Z,0.20
2022-11-22T09:09:36.386Z,0.10
2022-11-22T09:11:34.710Z,0.10
2022-11-22T09:13:36.635Z,0.25
2022-11-22T09:15:38.368Z,0.10
2022-11-22T09:17:39.857Z,0.28
2022-11-22T09:19:41.640Z,0.10
2022-11-22T09:21:43.278Z,0.40
2022-11-22T09:23:45.294Z,0.05
2022-11-22T09:25:46.863Z,0.10
2022-11-22T09:27:48.330Z,0.93
2022-11-22T09:29:50.542Z,2.40
2022-11-22T09:31:52.390Z,3.47
2022-11-22T09:33:53.871Z,1.27
2022-11-22T09:36:05.766Z,1.50
2022-11-22T09:38:08.524Z,3.42
2022-11-22T09:40:10.494Z,1.35
2022-11-22T09:42:14.929Z,2.75
2022-11-22T09:44:31.664Z,2.58
2022-11-22T09:46:36.117Z,3.17
2022-11-22T09:48:55.773Z,2.22
2022-11-22T09:50:57.501Z,4.55
2022-11-22T09:53:04.682Z,4.13
2022-11-22T09:55:11.330Z,7.63
2022-11-22T09:57:16.525Z,5.78
2022-11-22T09:59:26.495Z,6.13
2022-11-22T10:01:31.278Z,5.10
2022-11-22T10:03:36.287Z,6.22
2022-11-22T10:05:43.722Z,4.57
2022-11-22T10:07:50.398Z,7.15
2022-11-22T10:09:58.844Z,3.35
2022-11-22T10:12:03.762Z,4.97
2022-11-22T10:14:13.486Z,3.08
2022-11-22T10:16:15.096Z,3.15
2022-11-22T10:18:20.945Z,2.20
2022-11-22T10:20:23.807Z,4.50
2022-11-22T10:22:28.536Z,5.47
2022-11-22T10:24:30.543Z,4.15
2022-11-22T10:26:34.158Z,7.15
2022-11-22T10:28:43.169Z,4.88
2022-11-22T10:31:07.981Z,1.85
2022-11-22T10:33:16.296Z,2.17
2022-11-22T10:35:30.545Z,5.95
2022-11-22T10:37:50.925Z,4.10
2022-11-22T10:40:11.424Z,3.08
2022-11-22T10:42:33.873Z,2.35
2022-11-22T10:44:43.504Z,3.17
2022-11-22T10:47:00.552Z,3.15
2022-11-22T10:49:17.292Z,3.65
2022-11-22T10:51:37.446Z,5.45
2022-11-22T10:54:03.191Z,2.95
2022-11-22T10:56:11.090Z,3.70
2022-11-22T10:58:24.980Z,4.93
2022-11-22T11:00:27.762Z,4.25
2022-11-22T11:02:29.318Z,7.15
2022-11-22T11:04:32.533Z,5.30
2022-11-22T11:07:10.459Z,4.10
2022-11-22T11:10:08.919Z,2.40
2022-11-22T11:11:42.153Z,5.15
2022-11-22T11:14:11.896Z,3.03
2022-11-22T11:16:22.989Z,1.58
2022-11-22T11:18:56.484Z,2.50
2022-11-22T11:21:03.042Z,2.30
2022-11-22T11:23:16.008Z,2.03
2022-11-22T11:25:45.499Z,1.88
2022-11-22T11:27:57.301Z,2.45
2022-11-22T11:30:08.891Z,4.10
2022-11-22T11:32:18.596Z,2.05
2022-11-22T11:34:35.210Z,2.28
2022-11-22T11:36:39.936Z,3.90
2022-11-22T11:38:48.149Z,4.50
2022-11-22T11:40:58.503Z,1.75
2022-11-22T11:43:17.817Z,3.17
2022-11-22T11:45:34.321Z,1.48
2022-11-22T11:47:41.107Z,3.50
2022-11-22T11:49:50.770Z,1.92
2022-11-22T11:51:55.492Z,1.67
2022-11-22T11:54:10.917Z,3.22
2022-11-22T11:56:27.518Z,3.13
2022-11-22T11:58:29.155Z,3.10
2022-11-22T12:00:38.830Z,2.40
2022-11-22T12:02:41.480Z,6.63
2022-11-22T12:04:48.669Z,2.70
2022-11-22T12:06:58.747Z,2.40
2022-11-22T12:09:22.687Z,5.40
2022-11-22T12:11:35.770Z,1.02
2022-11-22T12:13:57.879Z,1.48
2022-11-22T12:15:59.127Z,3.10
2022-11-22T12:18:00.849Z,2.85
2022-11-22T12:20:08.429Z,0.47
2022-11-22T12:22:48.441Z,1.17
2022-11-22T12:25:24.477Z,1.48
2022-11-22T12:27:18.160Z,1.67
2022-11-22T12:29:20.040Z,0.45
2022-11-22T12:31:34.925Z,1.40
2022-11-22T12:33:40.547Z,1.92
2022-11-22T12:35:44.050Z,1.13
2022-11-22T12:37:51.126Z,1.33
2022-11-22T12:39:55.304Z,0.82
2022-11-22T12:44:01.345Z,0.13
2022-11-22T12:46:11.070Z,0.82
2022-11-22T12:48:17.734Z,1.88
2022-11-22T12:50:31.555Z,0.43
2022-11-22T12:52:37.532Z,0.52
2022-11-22T12:55:11.710Z,1.55
2022-11-22T12:57:18.000Z,1.02
2022-11-22T12:59:19.633Z,1.55
2022-11-22T13:01:30.410Z,0.77
2022-11-22T13:03:35.626Z,2.50
2022-11-22T13:05:40.707Z,2.35
2022-11-22T13:08:02.661Z,2.95
2022-11-22T13:10:12.109Z,1.73
2022-11-22T13:12:15.009Z,1.98
2022-11-22T13:14:22.921Z,2.13
2022-11-22T13:16:24.694Z,2.97
2022-11-22T13:18:28.064Z,4.43
2022-11-22T13:20:38.126Z,1.42
2022-11-22T13:22:53.129Z,2.75
2022-11-22T13:25:13.703Z,3.50
2022-11-22T13:27:41.217Z,2.13
2022-11-22T13:29:43.364Z,1.85
2022-11-22T13:32:05.148Z,2.58
2022-11-22T13:34:22.351Z,3.97
2022-11-22T13:36:24.304Z,2.80
2022-11-22T13:38:26.377Z,1.40
2022-11-22T13:40:30.310Z,3.22
2022-11-22T13:42:31.836Z,2.75
2022-11-22T13:44:35.574Z,0.68
2022-11-22T13:46:49.496Z,1.48
2022-11-22T13:48:51.375Z,1.75
2022-11-22T13:50:53.212Z,0.95
2022-11-22T13:52:55.013Z,1.73
2022-11-22T13:54:58.477Z,1.58
2022-11-22T13:57:01.763Z,4.90
2022-11-22T13:59:04.594Z,6.63
2022-11-22T14:01:29.606Z,4.32
2022-11-22T14:05:36.589Z,6.38
2022-11-22T14:07:43.000Z,4.05
2022-11-22T14:09:51.050Z,4.18
2022-11-22T14:11:52.753Z,4.13
2022-11-22T14:13:55.175Z,3.42
2022-11-22T14:16:26.753Z,4.55
2022-11-22T14:19:00.151Z,2.53
2022-11-22T14:21:15.750Z,1.63
2022-11-22T14:23:33.350Z,2.60
2022-11-22T14:25:59.829Z,3.10
2022-11-22T14:28:20.495Z,1.38
2022-11-22T14:30:55.316Z,1.85
2022-11-22T14:33:09.648Z,1.25
2022-11-22T14:35:29.893Z,1.63
2022-11-22T14:37:43.962Z,1.77
2022-11-22T14:39:58.674Z,0.95
2022-11-22T14:42:29.745Z,1.05
2022-11-22T14:44:38.185Z,1.33
2022-11-22T14:46:53.086Z,0.90
2022-11-22T14:49:05.375Z,0.90
2022-11-22T14:51:10.351Z,0.60
2022-11-22T14:53:23.970Z,0.63
2022-11-22T14:55:38.614Z,0.70
2022-11-22T14:57:42.400Z,0.50
2022-11-22T15:00:13.198Z,1.55
2022-11-22T15:02:20.902Z,1.05
2022-11-22T15:09:19.188Z,0.47
2022-11-22T15:09:21.464Z,2.55
2022-11-22T15:09:46.698Z,0.60
2022-11-22T15:11:53.200Z,0.63
2022-11-22T15:14:04.727Z,0.60
2022-11-22T15:57:45.456Z,0.20
2022-11-22T15:59:50.206Z,0.50
2022-11-22T16:01:53.700Z,0.20
2022-11-22T16:03:59.046Z,0.30
2022-11-22T16:06:08.849Z,1.33
2022-11-22T16:08:14.478Z,0.30
2022-11-22T16:10:19.284Z,0.30
2022-11-22T16:12:35.644Z,0.20
2022-11-22T16:14:37.253Z,0.20
2022-11-22T16:16:39.341Z,0.28
2022-11-22T16:18:42.615Z,0.20
2022-11-22T16:21:04.428Z,0.17
2022-11-22T16:23:09.807Z,0.30
2022-11-22T16:25:31.132Z,0.30
2022-11-22T16:27:33.196Z,0.20
2022-11-22T16:29:37.260Z,0.20
2022-11-22T16:31:40.201Z,0.17
2022-11-22T16:33:42.452Z,0.30
2022-11-22T16:35:43.934Z,1.70
2022-11-22T16:37:48.074Z,0.20
2022-11-22T16:39:50.875Z,0.52
2022-11-22T16:41:52.998Z,0.10
2022-11-22T16:43:56.306Z,0.10
2022-11-22T16:45:57.760Z,0.10
2022-11-22T16:48:24.354Z,0.20
2022-11-22T16:50:20.922Z,0.20
2022-11-22T16:52:24.795Z,0.52
2022-11-22T16:54:28.559Z,0.25
2022-11-22T16:56:31.792Z,0.20
2022-11-22T16:58:33.381Z,0.10
2022-11-22T17:00:35.524Z,0.20
2022-11-22T17:02:40.054Z,0.10
2022-11-22T17:04:41.835Z,1.08
2022-11-22T17:06:44.808Z,0.30
2022-11-22T17:08:46.754Z,0.13
2022-11-22T17:10:49.803Z,0.30
2022-11-22T17:12:52.386Z,0.55
2022-11-22T17:14:54.559Z,0.35
2022-11-22T17:16:56.317Z,0.20
2022-11-22T17:18:58.130Z,0.20
2022-11-22T17:21:01.578Z,0.20
2022-11-22T17:23:29.657Z,1.23
2022-11-22T17:25:42.668Z,0.10
2022-11-22T17:28:00.500Z,0.10
2022-11-22T17:30:08.056Z,0.20
2022-11-22T17:32:15.681Z,0.30
2022-11-22T17:34:23.741Z,0.10
2022-11-22T17:36:37.522Z,0.25
2022-11-22T17:38:53.635Z,2.75
2022-11-22T17:41:11.492Z,0.20
2022-11-22T17:43:45.361Z,0.10
2022-11-22T17:45:57.069Z,0.13
2022-11-22T17:48:04.391Z,0.20
2022-11-22T17:50:22.627Z,0.20
2022-11-22T17:52:34.501Z,0.20
2022-11-22T17:54:58.302Z,0.38
2022-11-22T17:57:03.637Z,0.10
2022-11-22T17:59:05.908Z,0.50
2022-11-22T18:01:32.652Z,0.17
2022-11-22T18:03:34.256Z,0.10
2022-11-22T18:05:36.910Z,0.15
2022-11-22T18:07:41.870Z,0.15
2022-11-22T18:09:43.621Z,0.10
2022-11-22T18:11:45.872Z,0.22
2022-11-22T18:13:47.356Z,0.90
2022-11-22T18:16:01.636Z,0.32
2022-11-22T18:18:05.147Z,0.22
2022-11-22T18:20:07.157Z,0.50
2022-11-22T18:22:09.377Z,0.30
2022-11-22T18:24:11.678Z,0.22
2022-11-22T18:28:35.098Z,0.35
2022-11-22T18:30:37.207Z,0.22
2022-11-22T18:32:38.677Z,0.38
2022-11-22T18:34:41.710Z,0.50
2022-11-22T18:39:04.759Z,0.30
2022-11-22T18:41:06.327Z,0.95
2022-11-22T18:43:07.790Z,0.30
2022-11-22T18:45:10.467Z,0.35
2022-11-22T18:47:12.628Z,2.60
2022-11-22T18:49:14.271Z,0.40
2022-11-22T18:51:15.744Z,0.73
2022-11-22T18:53:18.417Z,0.38
2022-11-22T18:55:21.348Z,0.90
2022-11-22T18:57:22.768Z,0.47
2022-11-22T18:59:24.270Z,1.05
2022-11-22T19:01:27.399Z,0.28
2022-11-22T19:03:30.582Z,0.28
2022-11-22T19:05:32.133Z,0.22
2022-11-22T19:07:34.412Z,0.40
2022-11-22T19:09:36.106Z,0.50
2022-11-22T19:11:37.825Z,0.98
2022-11-22T19:13:40.006Z,0.20
2022-11-22T19:15:41.527Z,0.20
2022-11-22T19:17:45.309Z,1.30
2022-11-22T19:19:53.628Z,0.30
2022-11-22T19:21:56.597Z,1.23
2022-11-22T19:23:58.475Z,0.38
2022-11-22T19:26:02.817Z,0.52
2022-11-22T19:28:05.308Z,0.40
2022-11-22T19:30:07.341Z,0.82
2022-11-22T19:32:09.451Z,0.55
2022-11-22T19:34:12.327Z,0.63
2022-11-22T19:36:15.032Z,0.73
2022-11-22T19:38:17.356Z,1.85
2022-11-22T19:40:19.611Z,0.73
2022-11-22T19:42:21.666Z,0.98
2022-11-22T19:44:24.350Z,0.68
2022-11-22T19:46:26.462Z,0.88
2022-11-22T19:48:28.932Z,0.30
2022-11-22T19:50:30.668Z,0.57
2022-11-22T19:52:32.193Z,0.50
2022-11-22T19:54:35.446Z,0.55
2022-11-22T19:56:38.117Z,1.92
2022-11-22T19:58:39.847Z,1.52
2022-11-22T20:00:41.891Z,3.42
2022-11-22T20:02:43.481Z,0.93
2022-11-22T20:04:45.595Z,1.25
2022-11-22T20:06:50.108Z,2.17
2022-11-22T20:08:52.795Z,1.83
2022-11-22T20:11:06.309Z,3.75
2022-11-22T20:13:10.737Z,1.63
2022-11-22T20:15:13.598Z,1.40
2022-11-22T20:17:15.854Z,1.08
2022-11-22T20:19:18.114Z,0.90
2022-11-22T20:21:22.240Z,0.98
2022-11-22T20:23:24.443Z,1.00
2022-11-22T20:25:26.054Z,1.73
2022-11-22T20:27:32.105Z,1.08
2022-11-22T20:29:44.057Z,1.10
2022-11-22T20:32:07.070Z,1.23
2022-11-22T20:34:31.376Z,0.65
2022-11-22T20:36:47.509Z,0.30
2022-11-22T20:39:11.955Z,0.50
2022-11-22T20:41:36.100Z,0.50
2022-11-22T20:43:46.975Z,1.00
2022-11-22T20:46:10.689Z,0.40
2022-11-22T20:48:24.091Z,0.70
2022-11-22T20:50:50.025Z,1.15
2022-11-22T20:53:12.529Z,0.47
2022-11-22T20:55:30.807Z,0.85
2022-11-22T20:57:45.622Z,0.93
2022-11-22T21:00:05.850Z,0.70
2022-11-22T21:02:33.210Z,0.75
2022-11-22T21:04:39.412Z,0.75
2022-11-22T21:06:40.931Z,0.75
2022-11-22T21:08:42.466Z,0.68
2022-11-22T21:10:44.084Z,0.60
2022-11-22T21:12:46.124Z,0.40
2022-11-22T21:14:50.237Z,0.75
2022-11-22T21:16:54.051Z,0.50
2022-11-22T21:19:05.136Z,0.77
2022-11-22T21:21:06.994Z,0.40
2022-11-22T21:23:08.448Z,0.57
2022-11-22T21:25:09.983Z,1.20
2022-11-22T21:27:11.833Z,0.38
2022-11-22T21:29:16.631Z,0.30
2022-11-22T21:31:19.429Z,0.30
2022-11-22T21:33:21.138Z,0.30
2022-11-22T21:35:23.298Z,0.30
2022-11-22T21:37:24.847Z,0.40
2022-11-22T21:39:26.315Z,0.38
2022-11-22T21:41:43.048Z,0.40
2022-11-22T21:43:50.014Z,0.40
2022-11-22T21:45:52.386Z,0.30
2022-11-22T21:47:53.887Z,0.70
2022-11-22T21:49:55.903Z,0.20
2022-11-22T21:54:53.794Z,0.20
2022-11-22T21:56:58.499Z,0.28
2022-11-22T21:59:04.088Z,0.20
2022-11-22T22:01:10.886Z,0.15
2022-11-22T22:03:14.672Z,0.25
2022-11-22T22:05:17.817Z,0.22
2022-11-22T22:07:44.614Z,0.30
2022-11-22T22:09:41.457Z,0.50
2022-11-22T22:11:45.694Z,0.40
2022-11-22T22:18:45.170Z,0.40
2022-11-22T22:20:46.659Z,0.68
2022-11-22T22:22:49.001Z,0.75
2022-11-22T22:24:50.852Z,0.98
2022-11-22T22:26:52.301Z,0.70
2022-11-22T22:28:53.867Z,1.00
2022-11-22T22:31:07.308Z,1.10
2022-11-22T22:33:08.740Z,0.57
2022-11-22T22:35:10.560Z,0.60
2022-11-22T22:37:12.130Z,1.42
2022-11-22T22:39:13.575Z,0.50
2022-11-22T22:41:15.237Z,0.55
2022-11-22T22:43:16.761Z,0.60
2022-11-22T22:45:18.454Z,0.50
2022-11-22T22:47:19.889Z,0.52
2022-11-22T22:49:21.321Z,0.70
2022-11-22T22:51:32.347Z,0.75
2022-11-22T22:53:35.296Z,3.08
2022-11-22T22:55:37.126Z,1.20
2022-11-22T22:57:38.608Z,0.95
2022-11-22T22:59:40.028Z,0.70
2022-11-22T23:01:41.534Z,0.65
2022-11-22T23:03:46.810Z,0.70
2022-11-22T23:05:48.600Z,0.50
2022-11-22T23:07:50.183Z,0.52
2022-11-22T23:09:51.701Z,1.02
2022-11-22T23:12:11.810Z,0.60
2022-11-22T23:14:14.233Z,0.52
2022-11-22T23:16:15.792Z,0.32
2022-11-22T23:18:17.491Z,0.65
2022-11-22T23:20:19.073Z,1.05
2022-11-22T23:22:25.651Z,0.60
2022-11-22T23:24:29.254Z,0.60
2022-11-22T23:26:31.169Z,0.35
2022-11-22T23:28:33.235Z,0.73
2022-11-22T23:30:34.735Z,0.65
2022-11-22T23:32:50.419Z,0.50
2022-11-22T23:35:19.525Z,0.50
2022-11-22T23:37:40.100Z,0.65
2022-11-22T23:39:57.718Z,0.30
2022-11-22T23:42:20.312Z,0.40
2022-11-22T23:44:38.878Z,0.38
2022-11-22T23:46:52.200Z,2.67
2022-11-22T23:49:00.327Z,0.47
2022-11-22T23:51:07.213Z,0.50
2022-11-22T23:53:19.849Z,0.52
2022-11-22T23:55:47.459Z,0.38
2022-11-22T23:58:14.238Z,0.45
